RYR6522 EGBB-EGNT
Flight info
| Callsign | RYR6522 |
|---|---|
| Flight time | 0h 44m |
| Altitude | 22000 |
| Route | LUVUM DCT TNT N57 POL |
| Aircraft | B738/M-SDE2E3FGHIRWXY/LB1 |
Departure
| Time | 2026-05-01 11:49 |
|---|---|
| Airport | Birmingham Airport (EGBB) |
Arrival
| Time | 2026-05-01 12:34 |
|---|---|
| Airport | Newcastle International Airport (EGNT) |
| Time | Latitude | Longitude | Altitude | Speed | Heading |
|---|---|---|---|---|---|
| 2026-05-01 11:32 | 52.45378 | -1.73583 | 328 ft | 0 kts | 146° |
| 2026-05-01 11:41 | 52.45391 | -1.73597 | 324 ft | 2 kts | 148° |
| 2026-05-01 11:42 | 52.45406 | -1.73611 | 325 ft | 2 kts | 152° |
| 2026-05-01 11:42 | 52.45420 | -1.73623 | 325 ft | 2 kts | 157° |
| 2026-05-01 11:42 | 52.45436 | -1.73631 | 325 ft | 2 kts | 168° |
| 2026-05-01 11:42 | 52.45452 | -1.73633 | 325 ft | 2 kts | 196° |
| 2026-05-01 11:43 | 52.45465 | -1.73620 | 324 ft | 1 kts | 236° |
| 2026-05-01 11:43 | 52.45466 | -1.73618 | 324 ft | 0 kts | 237° |
| 2026-05-01 11:44 | 52.45464 | -1.73624 | 324 ft | 2 kts | 237° |
| 2026-05-01 11:44 | 52.45444 | -1.73664 | 324 ft | 7 kts | 231° |
| 2026-05-01 11:45 | 52.45405 | -1.73753 | 329 ft | 12 kts | 236° |
| 2026-05-01 11:45 | 52.45349 | -1.73888 | 325 ft | 16 kts | 236° |
| 2026-05-01 11:45 | 52.45319 | -1.74064 | 327 ft | 18 kts | 290° |
| 2026-05-01 11:45 | 52.45377 | -1.74256 | 324 ft | 20 kts | 297° |
| 2026-05-01 11:46 | 52.45443 | -1.74468 | 324 ft | 22 kts | 296° |
| 2026-05-01 11:46 | 52.45541 | -1.74646 | 322 ft | 21 kts | 326° |
| 2026-05-01 11:46 | 52.45662 | -1.74781 | 322 ft | 21 kts | 326° |
| 2026-05-01 11:46 | 52.45779 | -1.74911 | 321 ft | 20 kts | 326° |
| 2026-05-01 11:47 | 52.45892 | -1.75037 | 321 ft | 19 kts | 326° |
| 2026-05-01 11:47 | 52.46004 | -1.75160 | 320 ft | 19 kts | 326° |
| 2026-05-01 11:47 | 52.46112 | -1.75281 | 318 ft | 19 kts | 326° |
| 2026-05-01 11:47 | 52.46225 | -1.75406 | 317 ft | 20 kts | 326° |
| 2026-05-01 11:48 | 52.46350 | -1.75545 | 316 ft | 23 kts | 326° |
| 2026-05-01 11:48 | 52.46489 | -1.75701 | 314 ft | 26 kts | 326° |
| 2026-05-01 11:48 | 52.46625 | -1.75875 | 313 ft | 24 kts | 291° |
| 2026-05-01 11:48 | 52.46541 | -1.76069 | 315 ft | 23 kts | 177° |
| 2026-05-01 11:49 | 52.46405 | -1.75934 | 316 ft | 30 kts | 146° |
| 2026-05-01 11:49 | 52.46030 | -1.75518 | 318 ft | 99 kts | 146° |
| 2026-05-01 11:49 | 52.45292 | -1.74696 | 363 ft | 152 kts | 146° |
| 2026-05-01 11:49 | 52.44411 | -1.73706 | 1027 ft | 155 kts | 146° |
| 2026-05-01 11:50 | 52.43473 | -1.72651 | 1624 ft | 169 kts | 147° |
| 2026-05-01 11:50 | 52.42489 | -1.71547 | 2441 ft | 174 kts | 148° |
| 2026-05-01 11:50 | 52.41491 | -1.70409 | 3353 ft | 174 kts | 150° |
| 2026-05-01 11:50 | 52.40554 | -1.69037 | 3916 ft | 198 kts | 122° |
| 2026-05-01 11:51 | 52.40359 | -1.66707 | 4291 ft | 224 kts | 82° |
| 2026-05-01 11:51 | 52.40724 | -1.64198 | 4935 ft | 228 kts | 79° |
| 2026-05-01 11:51 | 52.41451 | -1.61856 | 5590 ft | 239 kts | 47° |
| 2026-05-01 11:51 | 52.42917 | -1.60553 | 5987 ft | 247 kts | 16° |
| 2026-05-01 11:52 | 52.44603 | -1.59850 | 6228 ft | 250 kts | 14° |
| 2026-05-01 11:52 | 52.46341 | -1.59499 | 6775 ft | 259 kts | 357° |
| 2026-05-01 11:52 | 52.48209 | -1.59736 | 7047 ft | 283 kts | 354° |
| 2026-05-01 11:52 | 52.50243 | -1.59995 | 7512 ft | 297 kts | 355° |
| 2026-05-01 11:53 | 52.52256 | -1.60676 | 7966 ft | 295 kts | 336° |
| 2026-05-01 11:53 | 52.54125 | -1.62076 | 8174 ft | 300 kts | 333° |
| 2026-05-01 11:53 | 52.56032 | -1.63532 | 8160 ft | 303 kts | 333° |
| 2026-05-01 11:53 | 52.57947 | -1.64956 | 8155 ft | 301 kts | 334° |
| 2026-05-01 11:54 | 52.59858 | -1.66345 | 8157 ft | 299 kts | 335° |
| 2026-05-01 11:54 | 52.61758 | -1.67716 | 8147 ft | 297 kts | 334° |
| 2026-05-01 11:54 | 52.63649 | -1.69077 | 8174 ft | 295 kts | 334° |
| 2026-05-01 11:54 | 52.65532 | -1.70437 | 8169 ft | 295 kts | 334° |
| 2026-05-01 11:55 | 52.67389 | -1.71784 | 8167 ft | 295 kts | 334° |
| 2026-05-01 11:55 | 52.69273 | -1.73153 | 8168 ft | 296 kts | 334° |
| 2026-05-01 11:55 | 52.71194 | -1.74383 | 8151 ft | 298 kts | 348° |
| 2026-05-01 11:55 | 52.73255 | -1.74395 | 8183 ft | 297 kts | 7° |
| 2026-05-01 11:56 | 52.75313 | -1.73936 | 8153 ft | 299 kts | 8° |
| 2026-05-01 11:56 | 52.77375 | -1.73440 | 8176 ft | 301 kts | 8° |
| 2026-05-01 11:56 | 52.79475 | -1.72936 | 8639 ft | 307 kts | 8° |
| 2026-05-01 11:56 | 52.81589 | -1.72437 | 9574 ft | 306 kts | 8° |
| 2026-05-01 11:57 | 52.83709 | -1.71944 | 10382 ft | 310 kts | 8° |
| 2026-05-01 11:57 | 52.85913 | -1.71437 | 10701 ft | 331 kts | 8° |
| 2026-05-01 11:57 | 52.88281 | -1.70895 | 10893 ft | 355 kts | 8° |
| 2026-05-01 11:57 | 52.90787 | -1.70325 | 11307 ft | 369 kts | 8° |
| 2026-05-01 11:58 | 52.93357 | -1.69741 | 11972 ft | 375 kts | 8° |
| 2026-05-01 11:58 | 52.95957 | -1.69151 | 12712 ft | 379 kts | 8° |
| 2026-05-01 11:58 | 53.01244 | -1.67948 | 14133 ft | 388 kts | 8° |
| 2026-05-01 11:59 | 53.03912 | -1.67546 | 14734 ft | 393 kts | 360° |
| 2026-05-01 11:59 | 53.06647 | -1.67973 | 15378 ft | 396 kts | 348° |
| 2026-05-01 11:59 | 53.09304 | -1.69223 | 16041 ft | 398 kts | 338° |
| 2026-05-01 12:00 | 53.14510 | -1.72610 | 17295 ft | 406 kts | 338° |
| 2026-05-01 12:00 | 53.17161 | -1.74292 | 17910 ft | 410 kts | 338° |
| 2026-05-01 12:00 | 53.22558 | -1.77654 | 19052 ft | 417 kts | 338° |
| 2026-05-01 12:01 | 53.25289 | -1.79350 | 19565 ft | 421 kts | 338° |
| 2026-05-01 12:01 | 53.28048 | -1.81066 | 20089 ft | 424 kts | 338° |
| 2026-05-01 12:01 | 53.30824 | -1.82796 | 20620 ft | 428 kts | 338° |
| 2026-05-01 12:01 | 53.33624 | -1.84546 | 21132 ft | 431 kts | 338° |
| 2026-05-01 12:02 | 53.36446 | -1.86313 | 21712 ft | 432 kts | 338° |
| 2026-05-01 12:02 | 53.39265 | -1.88080 | 22162 ft | 434 kts | 338° |
| 2026-05-01 12:02 | 53.42094 | -1.89857 | 22131 ft | 433 kts | 338° |
| 2026-05-01 12:02 | 53.44905 | -1.91625 | 22134 ft | 430 kts | 338° |
| 2026-05-01 12:03 | 53.47673 | -1.93367 | 22153 ft | 430 kts | 338° |
| 2026-05-01 12:03 | 53.50477 | -1.95136 | 22152 ft | 430 kts | 338° |
| 2026-05-01 12:03 | 53.53282 | -1.96907 | 22153 ft | 431 kts | 338° |
| 2026-05-01 12:03 | 53.56093 | -1.98682 | 22153 ft | 431 kts | 338° |
| 2026-05-01 12:04 | 53.58903 | -2.00458 | 22143 ft | 431 kts | 338° |
| 2026-05-01 12:04 | 53.61713 | -2.02236 | 22148 ft | 431 kts | 338° |
| 2026-05-01 12:04 | 53.64524 | -2.04018 | 22138 ft | 431 kts | 338° |
| 2026-05-01 12:04 | 53.67330 | -2.05798 | 22141 ft | 431 kts | 338° |
| 2026-05-01 12:05 | 53.70138 | -2.07583 | 22149 ft | 431 kts | 338° |
| 2026-05-01 12:05 | 53.75987 | -2.09237 | 22152 ft | 431 kts | 9° |
| 2026-05-01 12:05 | 53.78862 | -2.07953 | 21971 ft | 424 kts | 20° |
| 2026-05-01 12:06 | 53.81617 | -2.06299 | 21685 ft | 416 kts | 21° |
| 2026-05-01 12:06 | 53.84279 | -2.04640 | 21385 ft | 409 kts | 22° |
| 2026-05-01 12:06 | 53.86964 | -2.02970 | 21082 ft | 403 kts | 21° |
| 2026-05-01 12:06 | 53.89546 | -2.01388 | 20767 ft | 397 kts | 21° |
| 2026-05-01 12:07 | 53.92133 | -1.99824 | 20479 ft | 393 kts | 21° |
| 2026-05-01 12:07 | 53.94697 | -1.98288 | 20188 ft | 389 kts | 21° |
| 2026-05-01 12:07 | 53.97242 | -1.96768 | 19890 ft | 387 kts | 21° |
| 2026-05-01 12:07 | 53.99771 | -1.95260 | 19628 ft | 384 kts | 21° |
| 2026-05-01 12:08 | 54.02285 | -1.93759 | 19353 ft | 381 kts | 21° |
| 2026-05-01 12:08 | 54.04782 | -1.92267 | 19091 ft | 379 kts | 21° |
| 2026-05-01 12:08 | 54.07263 | -1.90783 | 18837 ft | 376 kts | 21° |
| 2026-05-01 12:08 | 54.09725 | -1.89307 | 18591 ft | 374 kts | 21° |
| 2026-05-01 12:09 | 54.12174 | -1.87837 | 18315 ft | 372 kts | 21° |
| 2026-05-01 12:09 | 54.14621 | -1.86422 | 18018 ft | 371 kts | 17° |
| 2026-05-01 12:09 | 54.17133 | -1.85456 | 17730 ft | 369 kts | 11° |
| 2026-05-01 12:09 | 54.19655 | -1.84727 | 17452 ft | 367 kts | 9° |
| 2026-05-01 12:10 | 54.22171 | -1.84040 | 17158 ft | 367 kts | 9° |
| 2026-05-01 12:10 | 54.27227 | -1.82578 | 16600 ft | 370 kts | 10° |
| 2026-05-01 12:10 | 54.29760 | -1.81802 | 16318 ft | 368 kts | 11° |
| 2026-05-01 12:11 | 54.34780 | -1.80229 | 16164 ft | 366 kts | 11° |
| 2026-05-01 12:11 | 54.37289 | -1.79436 | 16156 ft | 366 kts | 11° |
| 2026-05-01 12:11 | 54.39796 | -1.78645 | 16147 ft | 366 kts | 11° |
| 2026-05-01 12:12 | 54.42301 | -1.77853 | 16153 ft | 366 kts | 11° |
| 2026-05-01 12:12 | 54.44807 | -1.77060 | 16150 ft | 366 kts | 11° |
| 2026-05-01 12:12 | 54.47317 | -1.76286 | 16153 ft | 367 kts | 10° |
| 2026-05-01 12:12 | 54.49838 | -1.75527 | 15905 ft | 370 kts | 10° |
| 2026-05-01 12:13 | 54.51520 | -1.75022 | 15595 ft | 373 kts | 10° |
| 2026-05-01 12:13 | 54.54085 | -1.74253 | 15103 ft | 374 kts | 10° |
| 2026-05-01 12:13 | 54.56653 | -1.73482 | 14498 ft | 373 kts | 10° |
| 2026-05-01 12:13 | 54.59191 | -1.72718 | 13987 ft | 367 kts | 10° |
| 2026-05-01 12:14 | 54.62456 | -1.71733 | 13470 ft | 353 kts | 10° |
| 2026-05-01 12:14 | 54.64071 | -1.71246 | 13223 ft | 346 kts | 10° |
| 2026-05-01 12:14 | 54.66408 | -1.70542 | 12951 ft | 334 kts | 10° |
| 2026-05-01 12:14 | 54.68656 | -1.69867 | 12678 ft | 323 kts | 10° |
| 2026-05-01 12:15 | 54.70837 | -1.69217 | 12400 ft | 313 kts | 10° |
| 2026-05-01 12:15 | 54.72952 | -1.68589 | 12140 ft | 304 kts | 10° |
| 2026-05-01 12:15 | 54.74995 | -1.67980 | 11894 ft | 291 kts | 10° |
| 2026-05-01 12:15 | 54.76967 | -1.67390 | 11446 ft | 285 kts | 10° |
| 2026-05-01 12:16 | 54.78907 | -1.66813 | 11002 ft | 281 kts | 10° |
| 2026-05-01 12:16 | 54.80826 | -1.66244 | 10533 ft | 278 kts | 10° |
| 2026-05-01 12:16 | 54.82720 | -1.65687 | 10081 ft | 275 kts | 10° |
| 2026-05-01 12:16 | 54.84597 | -1.65136 | 9570 ft | 272 kts | 10° |
| 2026-05-01 12:17 | 54.86428 | -1.64588 | 9088 ft | 268 kts | 9° |
| 2026-05-01 12:17 | 54.88267 | -1.64649 | 8579 ft | 265 kts | 341° |
| 2026-05-01 12:17 | 54.89824 | -1.66181 | 8090 ft | 253 kts | 310° |
| 2026-05-01 12:17 | 54.90684 | -1.68719 | 7633 ft | 240 kts | 279° |
| 2026-05-01 12:18 | 54.90677 | -1.71520 | 7176 ft | 230 kts | 254° |
| 2026-05-01 12:18 | 54.90263 | -1.74173 | 6725 ft | 226 kts | 250° |
| 2026-05-01 12:18 | 54.89813 | -1.76780 | 6256 ft | 224 kts | 250° |
| 2026-05-01 12:18 | 54.89353 | -1.79363 | 5765 ft | 223 kts | 250° |
| 2026-05-01 12:19 | 54.88889 | -1.81921 | 5293 ft | 221 kts | 250° |
| 2026-05-01 12:19 | 54.88424 | -1.84460 | 4811 ft | 220 kts | 250° |
| 2026-05-01 12:19 | 54.87953 | -1.86974 | 4329 ft | 218 kts | 250° |
| 2026-05-01 12:19 | 54.87476 | -1.89503 | 4082 ft | 220 kts | 250° |
| 2026-05-01 12:20 | 54.87014 | -1.92043 | 4023 ft | 220 kts | 250° |
| 2026-05-01 12:20 | 54.86545 | -1.94583 | 3984 ft | 221 kts | 250° |
| 2026-05-01 12:20 | 54.86080 | -1.97079 | 3980 ft | 222 kts | 257° |
| 2026-05-01 12:20 | 54.86243 | -1.99732 | 3993 ft | 228 kts | 291° |
| 2026-05-01 12:21 | 54.87266 | -2.01884 | 4004 ft | 240 kts | 323° |
| 2026-05-01 12:21 | 54.88868 | -2.02858 | 4002 ft | 251 kts | 353° |
| 2026-05-01 12:21 | 54.90623 | -2.02896 | 4005 ft | 253 kts | 359° |
| 2026-05-01 12:21 | 54.92377 | -2.02775 | 3997 ft | 251 kts | 1° |
| 2026-05-01 12:22 | 54.94112 | -2.02634 | 3974 ft | 247 kts | 0° |
| 2026-05-01 12:22 | 54.95798 | -2.02249 | 3967 ft | 246 kts | 20° |
| 2026-05-01 12:22 | 54.97188 | -2.00586 | 4021 ft | 244 kts | 46° |
| 2026-05-01 12:22 | 54.98351 | -1.98342 | 3994 ft | 258 kts | 50° |
| 2026-05-01 12:23 | 54.99590 | -1.95886 | 4015 ft | 274 kts | 49° |
| 2026-05-01 12:23 | 55.00829 | -1.93415 | 3989 ft | 266 kts | 50° |
| 2026-05-01 12:23 | 55.02019 | -1.91047 | 3993 ft | 254 kts | 50° |
| 2026-05-01 12:23 | 55.03161 | -1.88770 | 3975 ft | 244 kts | 50° |
| 2026-05-01 12:24 | 55.04278 | -1.86561 | 3993 ft | 242 kts | 50° |
| 2026-05-01 12:24 | 55.05397 | -1.84345 | 3996 ft | 245 kts | 50° |
| 2026-05-01 12:24 | 55.06528 | -1.82087 | 4011 ft | 249 kts | 50° |
| 2026-05-01 12:24 | 55.07671 | -1.79789 | 4025 ft | 250 kts | 50° |
| 2026-05-01 12:25 | 55.08816 | -1.77486 | 3999 ft | 252 kts | 50° |
| 2026-05-01 12:25 | 55.11121 | -1.72891 | 3993 ft | 254 kts | 50° |
| 2026-05-01 12:25 | 55.12223 | -1.70497 | 3989 ft | 251 kts | 62° |
| 2026-05-01 12:26 | 55.12897 | -1.67722 | 4003 ft | 247 kts | 71° |
| 2026-05-01 12:26 | 55.14159 | -1.62168 | 4009 ft | 245 kts | 70° |
| 2026-05-01 12:26 | 55.14786 | -1.59401 | 3972 ft | 241 kts | 71° |
| 2026-05-01 12:27 | 55.15370 | -1.56708 | 4003 ft | 234 kts | 70° |
| 2026-05-01 12:27 | 55.16603 | -1.51369 | 3638 ft | 237 kts | 70° |
| 2026-05-01 12:28 | 55.17831 | -1.46120 | 3127 ft | 228 kts | 70° |
| 2026-05-01 12:28 | 55.18231 | -1.43501 | 2839 ft | 219 kts | 96° |
| 2026-05-01 12:28 | 55.16725 | -1.39742 | 2329 ft | 189 kts | 169° |
| 2026-05-01 12:29 | 55.15470 | -1.39913 | 2098 ft | 184 kts | 204° |
| 2026-05-01 12:29 | 55.14344 | -1.40998 | 2070 ft | 185 kts | 209° |
| 2026-05-01 12:29 | 55.12199 | -1.43296 | 2009 ft | 176 kts | 210° |
| 2026-05-01 12:30 | 55.10244 | -1.45438 | 2003 ft | 163 kts | 217° |
| 2026-05-01 12:30 | 55.09635 | -1.47091 | 2020 ft | 161 kts | 243° |
| 2026-05-01 12:30 | 55.09190 | -1.48781 | 2041 ft | 149 kts | 238° |
| 2026-05-01 12:31 | 55.08744 | -1.50395 | 1972 ft | 149 kts | 240° |
| 2026-05-01 12:31 | 55.08306 | -1.52028 | 1946 ft | 146 kts | 239° |
| 2026-05-01 12:31 | 55.07874 | -1.53623 | 1911 ft | 147 kts | 239° |
| 2026-05-01 12:31 | 55.07451 | -1.55237 | 1789 ft | 143 kts | 241° |
| 2026-05-01 12:32 | 55.07030 | -1.56829 | 1539 ft | 146 kts | 239° |
| 2026-05-01 12:32 | 55.06161 | -1.60053 | 1224 ft | 147 kts | 240° |
| 2026-05-01 12:32 | 55.05727 | -1.61696 | 985 ft | 151 kts | 240° |
| 2026-05-01 12:33 | 55.05284 | -1.63351 | 796 ft | 152 kts | 241° |
| 2026-05-01 12:33 | 55.04834 | -1.65023 | 539 ft | 152 kts | 243° |
| 2026-05-01 12:33 | 55.04399 | -1.66684 | 365 ft | 148 kts | 244° |
| 2026-05-01 12:33 | 55.03973 | -1.68300 | 248 ft | 137 kts | 245° |
| 2026-05-01 12:34 | 55.03668 | -1.69444 | 261 ft | 77 kts | 245° |
| 2026-05-01 12:34 | 55.03530 | -1.69975 | 264 ft | 31 kts | 244° |
| 2026-05-01 12:34 | 55.03439 | -1.70310 | 263 ft | 29 kts | 245° |
| 2026-05-01 12:34 | 55.03425 | -1.70620 | 263 ft | 28 kts | 327° |
| 2026-05-01 12:35 | 55.03591 | -1.70569 | 263 ft | 26 kts | 54° |
| 2026-05-01 12:35 | 55.03663 | -1.70582 | 264 ft | 0 kts | 317° |